Aurora, Texas
Current Conditions -  °F | °C
As of 12:53 PM on Tuesday 21 Oct 2014 (Local Time) from KAFW Reporting Station
Few Clouds Few Clouds  
Wind Chill: 79°   Ceiling: Unl
Heat Index: 79°   Visibility: 10mi
Dew Point: 53°   Wind: 9mph
Humidity: 40%   Direction: 100°E
Pressure: 30.08"   Gusts: NA
Location:  33.0495°N, 97.45°W
Report Text: KAFW 211753Z 10008KT 10SM FEW250 26/12 A3008 RMK AO2 SLP176 T02610117 10261 20111 58013
Loading
Personal Weather Stations






























Interactive Weather Map
Tropical Storm Tracking
New forecast layout! Learn more

10-Day Weather Forecast

Advertisements
Track Severe Weather on mobile